Time;durP1;ratioP1;P1;durP2;ratioP2;P2;SDS_P1;SDS_P2;PMS_P1;PMS_P2;Temp;Humidity;BMP_temperature;BMP_pressure;BME280_temperature;BME280_humidity;BME280_pressure;Samples;Min_cycle;Max_cycle;Signal;HPM_P1;HPM_P2
2022/04/23 00:01:15;;;;;;;17.37;15.77;;;14.70;57.40;;;;;;5071476;28;20201;-83
2022/04/23 00:03:40;;;;;;;16.87;15.33;;;14.60;57.70;;;;;;5100620;28;20211;-83
2022/04/23 00:06:07;;;;;;;15.40;14.10;;;14.40;58.60;;;;;;5086089;28;20205;-83
2022/04/23 00:08:32;;;;;;;15.83;14.63;;;14.40;58.60;;;;;;5091137;28;20312;-84
2022/04/23 00:10:59;;;;;;;16.07;14.67;;;14.50;58.50;;;;;;5069758;28;20670;-84
2022/04/23 00:13:25;;;;;;;15.57;14.17;;;14.60;58.60;;;;;;5073384;28;20247;-84
2022/04/23 00:15:52;;;;;;;16.87;15.37;;;14.70;58.00;;;;;;5093673;28;20201;-83
2022/04/23 00:18:18;;;;;;;16.27;14.77;;;14.60;57.30;;;;;;5089449;28;20205;-84
2022/04/23 00:20:46;;;;;;;18.00;16.30;;;14.70;57.70;;;;;;5098684;28;20195;-84
2022/04/23 00:23:13;;;;;;;16.67;15.33;;;14.50;57.80;;;;;;5115260;28;20181;-84
2022/04/23 00:25:39;;;;;;;16.63;15.23;;;14.50;57.80;;;;;;5097955;28;20214;-85
2022/04/23 00:28:06;;;;;;;17.97;16.40;;;14.40;57.90;;;;;;5110131;28;20230;-85
2022/04/23 00:30:33;;;;;;;18.17;16.67;;;14.40;58.20;;;;;;5094649;28;20189;-84
2022/04/23 00:33:00;;;;;;;18.07;16.47;;;14.20;58.70;;;;;;5097450;28;20189;-85
2022/04/23 00:35:26;;;;;;;17.73;16.13;;;14.20;59.00;;;;;;5090296;28;20237;-84
2022/04/23 00:37:52;;;;;;;17.93;16.43;;;14.20;58.70;;;;;;5102561;28;20268;-84
2022/04/23 00:40:19;;;;;;;19.07;17.47;;;14.30;59.10;;;;;;5051563;28;20201;-84
2022/04/23 00:42:53;;;;;;;18.27;16.67;;;14.00;59.40;;;;;;5090689;28;20184;-84
2022/04/23 00:45:22;;;;;;;17.87;16.13;;;14.00;59.90;;;;;;5092519;28;20218;-84
2022/04/23 00:47:49;;;;;;;18.53;16.73;;;13.90;60.50;;;;;;5094788;28;20230;-84
2022/04/23 00:50:17;;;;;;;17.00;15.60;;;13.80;61.10;;;;;;5093637;28;20184;-85
2022/04/23 00:52:44;;;;;;;18.80;17.00;;;13.70;61.30;;;;;;5098608;28;20218;-85
2022/04/23 00:55:10;;;;;;;17.93;16.30;;;13.70;62.20;;;;;;5094036;28;20218;-85
2022/04/23 00:57:36;;;;;;;18.17;16.43;;;13.50;62.00;;;;;;5113705;28;20183;-84
2022/04/23 01:00:09;;;;;;;17.50;15.80;;;13.50;62.70;;;;;;5102696;28;20193;-84
2022/04/23 01:02:36;;;;;;;17.67;16.03;;;13.20;63.50;;;;;;5075197;28;20187;-83
2022/04/23 01:05:03;;;;;;;17.73;16.23;;;13.10;64.40;;;;;;5081150;28;20220;-84
2022/04/23 01:07:29;;;;;;;18.17;16.37;;;13.10;64.60;;;;;;5092712;28;20183;-83
2022/04/23 01:09:55;;;;;;;16.67;15.07;;;13.00;65.40;;;;;;5091702;28;20231;-83
2022/04/23 01:12:20;;;;;;;17.33;15.83;;;12.90;65.70;;;;;;5092070;28;20195;-83
2022/04/23 01:15:06;;;;;;;19.23;17.47;;;13.10;65.10;;;;;;5084105;28;20212;-83
2022/04/23 01:17:32;;;;;;;18.17;16.57;;;13.00;65.10;;;;;;5100337;28;20189;-84
2022/04/23 01:20:03;;;;;;;19.40;17.70;;;13.10;64.90;;;;;;5108014;28;20186;-85
2022/04/23 01:22:29;;;;;;;18.30;16.60;;;13.20;64.40;;;;;;5071158;28;20209;-85
2022/04/23 01:24:55;;;;;;;19.33;17.63;;;13.10;64.20;;;;;;5082154;28;20205;-84
2022/04/23 01:27:25;;;;;;;19.10;17.47;;;12.90;65.20;;;;;;5086974;28;20271;-84
2022/04/23 01:29:51;;;;;;;19.80;17.90;;;12.80;65.70;;;;;;5094608;28;20300;-84
2022/04/23 01:32:17;;;;;;;19.47;17.67;;;12.80;65.80;;;;;;5088580;28;20180;-84
2022/04/23 01:34:42;;;;;;;20.30;18.23;;;12.60;66.60;;;;;;5073072;28;20621;-84
2022/04/23 01:37:08;;;;;;;20.20;18.30;;;12.50;67.10;;;;;;5093174;28;20191;-84
2022/04/23 01:39:34;;;;;;;20.10;18.23;;;12.40;67.50;;;;;;5074224;28;20266;-83
2022/04/23 01:42:00;;;;;;;19.63;17.93;;;12.50;67.10;;;;;;5091202;28;20280;-83
2022/04/23 01:44:26;;;;;;;19.57;17.77;;;12.50;66.80;;;;;;5098429;28;20211;-84
2022/04/23 01:46:51;;;;;;;20.27;18.47;;;12.50;66.90;;;;;;5072173;28;20203;-83
2022/04/23 01:49:17;;;;;;;18.97;17.23;;;12.70;65.90;;;;;;5076204;28;20209;-84
2022/04/23 01:51:43;;;;;;;19.07;17.37;;;12.60;66.20;;;;;;5094282;28;20194;-86
2022/04/23 01:54:08;;;;;;;21.13;19.13;;;12.70;66.30;;;;;;5082360;28;20219;-82
2022/04/23 01:56:34;;;;;;;20.00;18.10;;;12.60;66.00;;;;;;5063987;28;20194;-84
2022/04/23 01:59:01;;;;;;;20.10;18.20;;;12.60;66.10;;;;;;5096338;28;20188;-84
2022/04/23 02:01:26;;;;;;;19.13;17.53;;;12.50;66.50;;;;;;5087787;28;20204;-83
2022/04/23 02:03:52;;;;;;;19.77;18.00;;;12.60;66.40;;;;;;5087836;28;20680;-85
2022/04/23 02:06:18;;;;;;;19.93;17.93;;;12.70;65.80;;;;;;5101453;28;20209;-83
2022/04/23 02:08:43;;;;;;;19.20;17.33;;;12.60;66.40;;;;;;5071898;28;20217;-84
2022/04/23 02:11:09;;;;;;;19.37;17.73;;;12.50;66.70;;;;;;5093102;28;20188;-82
2022/04/23 02:13:35;;;;;;;20.93;19.13;;;12.60;66.60;;;;;;5055931;28;20192;-85
2022/04/23 02:16:04;;;;;;;19.90;18.20;;;12.40;67.60;;;;;;5105826;28;20218;-85
2022/04/23 02:18:32;;;;;;;20.47;18.30;;;12.30;68.40;;;;;;5077484;28;20192;-86
2022/04/23 02:20:58;;;;;;;20.70;18.67;;;12.30;68.20;;;;;;5106058;28;20177;-86
2022/04/23 02:23:24;;;;;;;20.23;18.20;;;12.30;68.00;;;;;;5087638;28;20260;-85
2022/04/23 02:25:50;;;;;;;20.23;18.00;;;12.50;67.40;;;;;;5093336;28;20220;-84
2022/04/23 02:28:15;;;;;;;18.77;17.07;;;12.50;67.10;;;;;;5090448;28;20210;-84
2022/04/23 02:30:41;;;;;;;19.07;17.47;;;12.70;66.30;;;;;;5092275;28;20213;-83
2022/04/23 02:33:07;;;;;;;18.03;16.43;;;12.70;66.20;;;;;;5090541;28;20205;-84
2022/04/23 02:35:34;;;;;;;18.97;17.07;;;12.70;66.40;;;;;;5085877;28;20240;-85
2022/04/23 02:38:03;;;;;;;21.00;18.97;;;12.60;66.60;;;;;;5092289;28;20192;-84
2022/04/23 02:40:29;;;;;;;19.33;17.57;;;12.60;66.80;;;;;;5096393;28;20192;-84
2022/04/23 02:42:57;;;;;;;18.40;16.90;;;12.50;67.40;;;;;;5090415;28;20195;-84
2022/04/23 02:45:25;;;;;;;20.43;18.60;;;12.60;67.00;;;;;;5091345;28;20286;-84
2022/04/23 02:47:53;;;;;;;20.70;18.83;;;12.30;67.90;;;;;;5086358;28;20195;-84
2022/04/23 02:50:28;;;;;;;19.50;17.67;;;12.10;69.10;;;;;;5091353;28;20376;-84
2022/04/23 02:52:56;;;;;;;19.93;18.03;;;12.10;69.10;;;;;;5085503;28;20554;-84
2022/04/23 02:55:23;;;;;;;19.17;17.27;;;12.20;68.60;;;;;;5086572;28;20297;-84
2022/04/23 02:57:49;;;;;;;21.20;19.30;;;12.40;68.10;;;;;;5080169;28;20277;-84
2022/04/23 03:00:15;;;;;;;19.17;17.57;;;12.30;68.10;;;;;;5091448;28;20211;-85
2022/04/23 03:02:42;;;;;;;19.13;17.33;;;12.30;68.70;;;;;;5088986;28;20588;-84
2022/04/23 03:05:14;;;;;;;18.93;17.27;;;12.30;68.90;;;;;;5092982;28;20211;-84
2022/04/23 03:07:40;;;;;;;19.37;17.67;;;12.30;68.90;;;;;;5095970;28;20185;-84
2022/04/23 03:10:07;;;;;;;19.20;17.50;;;12.10;70.20;;;;;;5084765;28;20176;-83
2022/04/23 03:12:36;;;;;;;20.40;18.53;;;12.00;70.00;;;;;;5107979;28;20407;-85
2022/04/23 03:15:03;;;;;;;19.90;18.13;;;11.70;71.60;;;;;;5081455;28;20203;-84
2022/04/23 03:17:29;;;;;;;19.60;17.90;;;11.60;72.10;;;;;;5103621;28;20194;-84
2022/04/23 03:19:55;;;;;;;19.70;17.90;;;11.60;72.40;;;;;;5097672;28;20187;-84
2022/04/23 03:22:21;;;;;;;19.63;17.87;;;11.70;71.70;;;;;;5076343;28;20198;-84
2022/04/23 03:24:47;;;;;;;19.77;17.93;;;11.70;71.80;;;;;;5095133;28;20268;-85
2022/04/23 03:27:12;;;;;;;19.63;17.70;;;11.70;72.20;;;;;;5092076;28;20236;-83
2022/04/23 03:29:39;;;;;;;20.47;18.67;;;11.50;72.80;;;;;;5075189;28;20199;-83
2022/04/23 03:32:05;;;;;;;19.83;18.13;;;11.40;73.50;;;;;;5100949;28;20179;-83
2022/04/23 03:34:31;;;;;;;18.70;17.00;;;11.50;73.10;;;;;;5098115;28;20230;-83
2022/04/23 03:36:57;;;;;;;18.90;17.20;;;11.60;72.30;;;;;;5093166;28;20534;-84
2022/04/23 03:39:23;;;;;;;18.67;16.87;;;11.70;72.00;;;;;;5097985;28;20207;-83
2022/04/23 03:41:48;;;;;;;18.77;16.87;;;11.70;72.30;;;;;;5094014;28;20208;-84
2022/04/23 03:44:14;;;;;;;18.97;17.30;;;11.70;72.40;;;;;;5095080;28;20218;-85
2022/04/23 03:46:40;;;;;;;19.97;17.97;;;11.50;72.90;;;;;;5078893;28;20187;-84
2022/04/23 03:49:07;;;;;;;20.50;18.67;;;11.50;73.50;;;;;;5094681;28;20214;-83
2022/04/23 03:51:33;;;;;;;19.13;17.27;;;11.40;74.20;;;;;;5092211;28;20278;-86
2022/04/23 03:54:00;;;;;;;18.97;17.27;;;11.30;74.60;;;;;;5096063;28;20179;-86
2022/04/23 03:56:26;;;;;;;19.73;18.03;;;11.30;74.40;;;;;;5091755;28;20645;-83
2022/04/23 03:58:51;;;;;;;17.70;16.17;;;11.30;74.70;;;;;;5077653;28;20192;-84
2022/04/23 04:01:17;;;;;;;18.97;17.17;;;11.20;75.30;;;;;;5090659;28;20546;-84
2022/04/23 04:03:43;;;;;;;18.23;16.47;;;11.10;76.20;;;;;;5095307;28;20270;-84
2022/04/23 04:06:10;;;;;;;19.80;17.97;;;11.00;76.80;;;;;;5084179;28;20203;-86
2022/04/23 04:08:35;;;;;;;18.67;16.77;;;10.90;77.30;;;;;;5119567;28;20244;-84
2022/04/23 04:11:01;;;;;;;18.40;16.80;;;11.00;77.30;;;;;;5093927;28;20184;-85
2022/04/23 04:13:27;;;;;;;18.13;16.47;;;11.00;77.10;;;;;;5101955;28;20179;-85
2022/04/23 04:15:52;;;;;;;20.37;17.33;;;11.10;76.80;;;;;;5094541;28;20222;-84
2022/04/23 04:18:19;;;;;;;19.07;17.27;;;11.00;77.70;;;;;;5106849;28;20187;-85
2022/04/23 04:20:48;;;;;;;18.47;16.77;;;10.90;78.70;;;;;;5109505;28;20171;-84
2022/04/23 04:23:15;;;;;;;19.27;17.43;;;10.80;79.00;;;;;;5105955;28;20224;-83
2022/04/23 04:25:41;;;;;;;18.97;16.93;;;10.80;79.50;;;;;;5088051;28;20783;-83
2022/04/23 04:28:09;;;;;;;19.40;17.60;;;10.60;80.80;;;;;;5073780;28;20210;-83
2022/04/23 04:33:20;;;;;;;19.03;17.27;;;10.70;80.80;;;;;;5090194;28;20189;-84
2022/04/23 04:35:45;;;;;;;17.73;16.13;;;10.70;80.70;;;;;;5073321;28;20207;-85
2022/04/23 04:38:11;;;;;;;18.77;17.03;;;10.70;80.60;;;;;;5076935;28;20259;-83
2022/04/23 04:40:37;;;;;;;18.97;16.97;;;10.70;80.40;;;;;;5096404;28;20191;-84
2022/04/23 04:43:02;;;;;;;19.13;17.30;;;10.80;80.00;;;;;;5083333;28;20182;-84
2022/04/23 04:45:28;;;;;;;19.00;17.20;;;10.70;80.70;;;;;;5093574;28;20211;-85
2022/04/23 04:47:54;;;;;;;18.33;16.57;;;10.80;80.80;;;;;;5089582;28;20198;-84
2022/04/23 04:50:19;;;;;;;18.10;16.43;;;10.80;80.40;;;;;;5095582;28;20179;-83
2022/04/23 04:52:45;;;;;;;19.47;17.57;;;10.90;80.40;;;;;;5073669;28;20281;-85
2022/04/23 04:55:11;;;;;;;17.03;15.53;;;10.80;80.60;;;;;;5088725;28;20272;-84
2022/04/23 04:57:36;;;;;;;17.87;16.33;;;10.90;80.00;;;;;;5092268;28;20207;-85
2022/04/23 05:00:04;;;;;;;18.63;16.70;;;11.00;79.60;;;;;;5073510;28;20182;-84
2022/04/23 05:02:30;;;;;;;19.30;17.30;;;11.00;80.10;;;;;;5103883;28;20194;-83
2022/04/23 05:04:55;;;;;;;17.83;16.23;;;10.90;80.70;;;;;;5104790;28;20201;-85
2022/04/23 05:07:21;;;;;;;16.37;14.97;;;10.80;80.90;;;;;;5093520;28;20237;-83
2022/04/23 05:09:47;;;;;;;16.87;15.37;;;10.80;81.30;;;;;;5079820;28;20238;-85
2022/04/23 05:12:13;;;;;;;17.47;15.87;;;10.90;81.20;;;;;;5068927;28;20196;-84
2022/04/23 05:14:38;;;;;;;18.13;16.33;;;11.00;80.60;;;;;;5089981;28;20237;-83
2022/04/23 05:17:04;;;;;;;16.17;14.67;;;11.00;80.80;;;;;;5095950;28;20228;-84
2022/04/23 05:19:29;;;;;;;17.03;15.53;;;10.90;80.90;;;;;;5085531;28;20195;-84
2022/04/23 05:21:55;;;;;;;16.57;15.07;;;11.10;80.70;;;;;;5088974;28;20191;-85
2022/04/23 05:24:21;;;;;;;17.40;15.80;;;11.10;80.30;;;;;;5094337;28;20215;-83
2022/04/23 05:26:47;;;;;;;15.50;14.10;;;11.10;80.40;;;;;;5083654;28;20190;-83
2022/04/23 05:29:12;;;;;;;17.20;15.70;;;11.30;80.00;;;;;;5100577;28;20203;-84
2022/04/23 05:31:38;;;;;;;17.70;16.00;;;11.40;79.30;;;;;;5088777;28;20186;-84
2022/04/23 05:34:04;;;;;;;17.20;15.63;;;11.30;79.70;;;;;;5096453;28;20216;-84
2022/04/23 05:36:30;;;;;;;16.50;14.90;;;11.30;80.00;;;;;;5086513;28;20224;-85
2022/04/23 05:38:56;;;;;;;16.83;15.30;;;11.20;80.30;;;;;;5095684;28;20649;-84
2022/04/23 05:41:22;;;;;;;16.33;14.73;;;11.30;80.20;;;;;;5100331;28;20187;-83
2022/04/23 05:43:48;;;;;;;16.37;14.80;;;11.30;80.10;;;;;;5094479;28;20196;-83
2022/04/23 05:46:16;;;;;;;14.97;13.67;;;11.50;79.60;;;;;;5063576;28;20187;-83
2022/04/23 05:48:42;;;;;;;15.67;14.37;;;11.50;79.50;;;;;;5076977;28;20198;-84
2022/04/23 05:51:08;;;;;;;14.83;13.37;;;11.50;79.40;;;;;;5082889;28;20176;-83
2022/04/23 05:53:33;;;;;;;14.17;12.77;;;11.50;79.30;;;;;;5099275;28;20191;-83
2022/04/23 05:55:59;;;;;;;14.17;12.97;;;11.50;79.60;;;;;;5074790;28;20717;-83
2022/04/23 05:58:25;;;;;;;13.27;12.13;;;11.40;79.80;;;;;;5042246;28;20203;-84
2022/04/23 06:00:51;;;;;;;12.80;11.80;;;11.40;79.90;;;;;;5111837;28;20190;-85
2022/04/23 06:03:17;;;;;;;12.30;11.20;;;11.40;80.40;;;;;;5085650;28;20554;-84
2022/04/23 06:05:43;;;;;;;11.97;10.97;;;11.30;80.70;;;;;;5072040;28;20713;-84
2022/04/23 06:08:08;;;;;;;12.20;11.10;;;11.30;81.20;;;;;;5090198;28;20222;-84
2022/04/23 06:10:35;;;;;;;13.00;11.80;;;11.40;80.50;;;;;;5105502;28;20281;-83
2022/04/23 06:13:01;;;;;;;11.37;10.47;;;11.40;80.70;;;;;;5093124;28;20585;-83
2022/04/23 06:15:27;;;;;;;12.50;11.40;;;11.50;80.50;;;;;;5091055;28;20224;-84
2022/04/23 06:17:52;;;;;;;11.53;10.57;;;11.50;80.30;;;;;;5095540;28;20214;-84
2022/04/23 06:20:18;;;;;;;11.77;10.67;;;11.60;79.80;;;;;;5081455;28;20245;-83
2022/04/23 06:22:44;;;;;;;11.60;10.60;;;11.80;79.00;;;;;;5082770;28;20225;-84
2022/04/23 06:25:09;;;;;;;12.37;11.17;;;11.90;78.50;;;;;;5087990;28;20686;-83
2022/04/23 06:27:36;;;;;;;11.07;10.17;;;11.80;78.80;;;;;;5083232;28;20179;-84
2022/04/23 06:30:03;;;;;;;10.90;10.00;;;11.80;78.30;;;;;;5067624;28;20225;-85
2022/04/23 06:32:29;;;;;;;11.37;10.27;;;11.90;78.50;;;;;;5089100;28;20183;-82
2022/04/23 06:34:54;;;;;;;11.63;10.63;;;12.00;77.70;;;;;;5067068;28;20207;-83
2022/04/23 06:37:20;;;;;;;12.40;11.17;;;12.10;77.20;;;;;;5095427;28;20239;-82
2022/04/23 06:39:46;;;;;;;11.90;10.80;;;12.20;76.60;;;;;;5074223;28;20199;-86
2022/04/23 06:42:11;;;;;;;11.67;10.67;;;12.20;76.10;;;;;;5070411;28;20527;-83
2022/04/23 06:44:37;;;;;;;12.00;11.00;;;12.30;76.20;;;;;;5089743;28;20207;-84
2022/04/23 06:47:03;;;;;;;12.50;11.40;;;12.20;76.50;;;;;;5087225;28;20180;-84
2022/04/23 06:49:29;;;;;;;11.73;10.53;;;12.30;76.40;;;;;;5085798;28;20214;-83
2022/04/23 06:51:55;;;;;;;12.40;11.40;;;12.20;76.10;;;;;;5074652;28;20179;-83
2022/04/23 06:54:22;;;;;;;11.73;10.73;;;12.30;76.10;;;;;;5081615;28;20205;-83
2022/04/23 06:56:48;;;;;;;11.50;10.50;;;12.50;75.30;;;;;;5097241;28;20182;-85
2022/04/23 06:59:13;;;;;;;12.27;11.23;;;12.70;75.10;;;;;;5108780;28;20199;-84
2022/04/23 07:01:40;;;;;;;11.90;10.73;;;12.60;74.40;;;;;;5096569;28;20212;-85
2022/04/23 07:04:10;;;;;;;12.97;11.87;;;12.70;74.70;;;;;;5083685;28;20562;-84
2022/04/23 07:06:36;;;;;;;12.83;11.80;;;12.70;74.10;;;;;;5084514;28;20569;-84
2022/04/23 07:09:03;;;;;;;11.93;10.93;;;12.50;75.50;;;;;;5086097;28;20212;-84
2022/04/23 07:11:29;;;;;;;11.63;10.73;;;12.70;74.60;;;;;;5072582;28;20212;-84
2022/04/23 07:13:55;;;;;;;13.43;12.23;;;12.70;74.50;;;;;;5083062;28;20180;-85
2022/04/23 07:16:21;;;;;;;12.40;11.20;;;12.90;73.80;;;;;;5080098;28;20182;-84
2022/04/23 07:18:47;;;;;;;11.70;10.70;;;13.00;72.80;;;;;;5079950;28;20189;-83
2022/04/23 07:21:12;;;;;;;12.37;11.17;;;13.00;73.30;;;;;;5085111;28;20552;-84
2022/04/23 07:26:25;;;;;;;11.73;10.73;;;13.10;72.30;;;;;;5082423;28;20208;-85
2022/04/23 07:28:51;;;;;;;11.50;10.50;;;13.10;72.40;;;;;;5085377;28;20213;-84
2022/04/23 07:31:16;;;;;;;11.90;10.73;;;13.30;71.70;;;;;;5079371;28;20246;-86
2022/04/23 07:39:10;;;;;;;13.23;11.77;;;13.20;72.10;;;;;;5091276;28;20251;-83
2022/04/23 07:41:36;;;;;;;12.63;11.53;;;13.10;72.00;;;;;;5084316;28;20287;-83
2022/04/23 07:44:02;;;;;;;12.53;11.43;;;13.10;72.60;;;;;;5063878;28;20177;-83
2022/04/23 07:46:27;;;;;;;13.27;12.13;;;13.20;71.40;;;;;;5108117;28;20211;-82
2022/04/23 07:48:53;;;;;;;12.20;11.20;;;13.30;71.80;;;;;;5086262;28;20402;-83
2022/04/23 07:51:20;;;;;;;11.50;10.50;;;13.50;71.00;;;;;;5095750;28;20196;-83
2022/04/23 07:53:45;;;;;;;12.87;11.77;;;13.70;69.50;;;;;;5089950;28;20195;-84
2022/04/23 07:56:11;;;;;;;11.33;10.33;;;13.80;68.70;;;;;;5084320;28;20224;-83
2022/04/23 07:58:37;;;;;;;12.07;10.87;;;13.90;69.00;;;;;;5084561;28;20204;-83
2022/04/23 08:01:02;;;;;;;12.83;11.83;;;13.90;68.80;;;;;;5088189;28;20197;-83
2022/04/23 08:03:28;;;;;;;11.93;10.77;;;14.00;68.20;;;;;;5100259;28;20192;-83
2022/04/23 08:05:54;;;;;;;11.87;10.87;;;14.10;68.00;;;;;;5080500;28;20816;-84
2022/04/23 08:08:21;;;;;;;12.37;11.33;;;14.30;67.30;;;;;;5095995;28;20210;-83
2022/04/23 08:10:47;;;;;;;11.80;10.80;;;14.30;66.60;;;;;;5077659;28;20183;-83
2022/04/23 08:13:13;;;;;;;12.60;10.67;;;14.20;67.50;;;;;;5087039;28;20194;-84
2022/04/23 08:15:39;;;;;;;11.50;10.50;;;14.30;66.30;;;;;;5079138;28;20226;-83
2022/04/23 08:18:05;;;;;;;11.20;10.17;;;14.40;66.70;;;;;;5084283;28;20250;-83
2022/04/23 08:20:31;;;;;;;10.50;9.70;;;14.70;65.90;;;;;;5101845;28;20188;-84
2022/04/23 08:22:57;;;;;;;9.80;8.93;;;14.80;64.80;;;;;;5089814;28;20188;-83
2022/04/23 08:25:22;;;;;;;14.30;10.17;;;14.80;64.60;;;;;;5085850;28;20205;-84
2022/04/23 08:27:53;;;;;;;10.20;9.33;;;14.90;63.90;;;;;;5087828;28;20564;-84
2022/04/23 08:30:35;;;;;;;9.27;8.50;;;14.80;65.00;;;;;;5078833;28;20199;-85
2022/04/23 08:33:02;;;;;;;9.43;8.73;;;14.90;64.10;;;;;;5091306;28;20264;-85
2022/04/23 08:35:27;;;;;;;9.97;9.17;;;14.90;63.80;;;;;;5090857;28;20254;-84
2022/04/23 08:37:53;;;;;;;8.70;8.03;;;14.80;63.00;;;;;;5087665;28;20202;-84
2022/04/23 08:40:19;;;;;;;8.77;8.10;;;15.10;63.40;;;;;;5091357;28;20218;-85
2022/04/23 08:42:45;;;;;;;8.10;7.43;;;15.30;63.10;;;;;;5089469;28;20189;-85
2022/04/23 08:45:12;;;;;;;8.00;7.30;;;15.40;61.50;;;;;;5091431;28;20210;-85
2022/04/23 08:47:44;;;;;;;7.37;6.77;;;15.40;61.00;;;;;;5090950;28;20223;-84
2022/04/23 08:50:10;;;;;;;8.00;7.30;;;15.60;60.00;;;;;;5087127;28;20302;-84
2022/04/23 08:52:37;;;;;;;7.17;6.57;;;15.60;60.10;;;;;;5097392;28;20600;-84
2022/04/23 08:55:06;;;;;;;7.80;7.20;;;15.70;60.10;;;;;;5059748;28;20265;-84
2022/04/23 08:57:33;;;;;;;7.87;6.87;;;15.90;59.60;;;;;;5085533;28;20678;-85
2022/04/23 08:59:59;;;;;;;7.20;6.60;;;16.00;59.20;;;;;;5092539;28;20653;-85
2022/04/23 09:02:27;;;;;;;8.10;6.90;;;15.90;59.20;;;;;;5085336;28;20198;-85
2022/04/23 09:04:54;;;;;;;6.87;6.37;;;16.00;58.80;;;;;;5088796;28;20271;-85
2022/04/23 09:07:25;;;;;;;7.60;6.90;;;16.10;59.10;;;;;;5089165;28;20189;-85
2022/04/23 09:09:52;;;;;;;6.97;6.37;;;16.30;58.00;;;;;;5083104;28;20210;-84
2022/04/23 09:12:19;;;;;;;7.00;6.37;;;16.10;59.10;;;;;;5084558;28;20877;-85
2022/04/23 09:14:45;;;;;;;6.60;6.00;;;16.20;58.40;;;;;;5074421;28;20202;-84
2022/04/23 09:25:18;;;;;;;6.43;5.63;;;16.00;58.10;;;;;;5087114;28;20232;-84
2022/04/23 09:27:44;;;;;;;6.17;5.60;;;16.20;58.20;;;;;;5074840;28;20176;-84
2022/04/23 09:30:12;;;;;;;5.60;5.10;;;16.40;57.20;;;;;;5076346;28;20207;-85
2022/04/23 09:32:55;;;;;;;6.40;5.83;;;16.50;56.90;;;;;;5071870;28;20188;-85
2022/04/23 09:35:21;;;;;;;6.40;5.80;;;16.60;56.00;;;;;;5086902;28;20211;-85
2022/04/23 09:40:31;;;;;;;6.53;5.33;;;16.50;56.00;;;;;;5086401;28;20767;-84
2022/04/23 09:43:04;;;;;;;6.17;5.57;;;16.60;57.20;;;;;;5082102;28;20188;-84
2022/04/23 09:45:31;;;;;;;6.03;5.53;;;16.90;55.10;;;;;;5098723;28;20285;-84
2022/04/23 09:48:14;;;;;;;5.27;4.87;;;17.00;55.00;;;;;;5109418;28;20222;-84
2022/04/23 09:50:41;;;;;;;5.97;5.47;;;17.10;54.70;;;;;;5077556;28;20274;-84
2022/04/23 09:53:13;;;;;;;8.23;5.00;;;17.30;54.00;;;;;;5082838;28;20188;-86
2022/04/23 09:55:39;;;;;;;5.47;4.97;;;17.30;54.20;;;;;;5092128;28;20773;-86
2022/04/23 09:58:07;;;;;;;5.57;5.17;;;17.50;53.30;;;;;;5087727;28;20237;-86
2022/04/23 10:00:36;;;;;;;6.33;4.97;;;17.60;53.00;;;;;;5070900;28;20183;-86
2022/04/23 10:03:07;;;;;;;9.30;5.33;;;17.90;52.50;;;;;;5090966;28;20195;-86
2022/04/23 10:05:41;;;;;;;5.30;4.73;;;18.20;52.20;;;;;;5091429;28;20222;-86
2022/04/23 10:08:14;;;;;;;5.13;4.70;;;18.60;50.70;;;;;;5091226;28;20204;-86
2022/04/23 10:10:47;;;;;;;6.43;5.00;;;18.80;50.00;;;;;;5078751;28;20230;-85
2022/04/23 10:13:16;;;;;;;10.77;5.22;;;19.10;49.50;;;;;;5077957;28;20187;-86
2022/04/23 10:15:45;;;;;;;5.07;4.53;;;19.10;48.10;;;;;;5067104;28;20210;-86
2022/04/23 10:18:12;;;;;;;6.97;4.88;;;18.80;48.90;;;;;;5069879;28;20183;-85
2022/04/23 10:20:40;;;;;;;6.38;4.80;;;18.70;49.40;;;;;;5075063;28;20194;-85
2022/04/23 10:23:48;;;;;;;7.68;4.55;;;18.20;49.50;;;;;;5089709;28;20185;-85
2022/04/23 10:26:56;;;;;;;5.97;4.55;;;18.00;50.60;;;;;;5091266;28;20179;-85
2022/04/23 10:29:23;;;;;;;4.63;4.33;;;18.00;50.70;;;;;;5054644;28;20207;-85
2022/04/23 10:32:10;;;;;;;5.57;5.07;;;17.90;51.50;;;;;;5083025;28;20216;-85
2022/04/23 10:34:36;;;;;;;6.97;5.07;;;17.90;50.90;;;;;;5077620;28;20204;-84
2022/04/23 10:37:18;;;;;;;5.20;4.70;;;18.20;50.50;;;;;;5085859;28;20191;-84
2022/04/23 10:39:53;;;;;;;4.90;4.50;;;18.50;50.30;;;;;;5088135;28;20178;-84
2022/04/23 10:42:19;;;;;;;4.95;4.55;;;19.10;47.70;;;;;;5094374;28;20255;-84
2022/04/23 10:44:46;;;;;;;4.55;4.20;;;19.50;48.00;;;;;;5089327;28;20220;-84
2022/04/23 10:47:30;;;;;;;6.47;4.72;;;19.90;46.40;;;;;;5085197;28;20186;-84
2022/04/23 10:50:19;;;;;;;8.00;4.82;;;20.20;45.60;;;;;;5077782;28;20202;-84
2022/04/23 10:52:45;;;;;;;5.07;4.68;;;20.70;44.50;;;;;;5091717;28;20226;-84
2022/04/23 10:55:13;;;;;;;5.25;4.72;;;21.00;44.30;;;;;;5087629;28;20223;-84
2022/04/23 10:57:39;;;;;;;4.90;4.50;;;21.20;42.60;;;;;;5090099;28;20187;-84
2022/04/23 11:00:18;;;;;;;5.60;5.10;;;21.40;42.00;;;;;;5085845;28;20194;-84
2022/04/23 11:02:53;;;;;;;5.78;5.25;;;21.70;42.10;;;;;;5089730;28;20194;-84
2022/04/23 11:13:55;;;;;;;6.28;4.93;;;21.00;43.10;;;;;;5087504;28;20229;-83
2022/04/23 11:16:25;;;;;;;5.03;4.53;;;21.00;42.70;;;;;;5103417;28;20209;-84
2022/04/23 11:18:55;;;;;;;4.70;4.40;;;20.50;43.50;;;;;;5094457;28;20244;-84
2022/04/23 11:21:31;;;;;;;4.53;4.13;;;20.00;43.40;;;;;;5083604;28;20188;-84
2022/04/23 11:23:59;;;;;;;4.55;4.15;;;19.60;45.30;;;;;;5084958;28;20175;-84
2022/04/23 11:26:59;;;;;;;4.45;4.03;;;19.80;45.20;;;;;;5073922;28;20197;-84
2022/04/23 11:29:26;;;;;;;4.53;3.92;;;20.10;45.40;;;;;;5048055;28;20371;-84
2022/04/23 11:31:56;;;;;;;5.00;4.22;;;20.30;44.70;;;;;;5098120;28;20277;-84
2022/04/23 11:34:23;;;;;;;4.88;4.47;;;20.00;43.70;;;;;;5093350;28;20549;-84
2022/04/23 11:36:48;;;;;;;4.63;4.32;;;19.80;45.40;;;;;;5088039;28;20192;-84
2022/04/23 11:39:15;;;;;;;4.80;4.40;;;19.70;45.50;;;;;;5084200;28;20186;-84
2022/04/23 11:41:49;;;;;;;4.68;4.28;;;19.80;44.90;;;;;;5093305;28;20178;-84
2022/04/23 11:44:19;;;;;;;4.90;4.50;;;19.90;43.60;;;;;;5085640;28;20225;-85
2022/04/23 11:46:48;;;;;;;5.82;5.22;;;19.80;44.60;;;;;;5088332;28;20277;-84
2022/04/23 11:49:30;;;;;;;4.65;4.13;;;20.10;44.40;;;;;;5093545;28;20215;-84
2022/04/23 11:52:06;;;;;;;5.22;4.82;;;20.80;43.60;;;;;;5086211;28;20658;-84
2022/04/23 11:54:34;;;;;;;6.18;4.32;;;20.80;42.10;;;;;;5084011;28;20285;-84
2022/04/23 11:57:00;;;;;;;5.88;4.32;;;20.50;42.80;;;;;;5083995;28;20183;-84
2022/04/23 11:59:57;;;;;;;4.90;4.57;;;20.30;42.90;;;;;;5096238;28;20211;-84
2022/04/23 12:02:25;;;;;;;4.80;4.50;;;20.10;43.10;;;;;;5092121;28;20217;-84
2022/04/23 12:04:52;;;;;;;4.90;4.60;;;20.20;43.00;;;;;;5083103;28;20214;-80
2022/04/23 12:07:19;;;;;;;5.13;4.03;;;20.10;42.80;;;;;;5075893;28;20626;-84
2022/04/23 12:09:55;;;;;;;4.55;4.25;;;20.70;41.50;;;;;;5092870;28;20214;-85
2022/04/23 12:12:22;;;;;;;5.28;4.88;;;20.60;41.30;;;;;;5085067;28;20260;-85
2022/04/23 12:14:58;;;;;;;4.63;4.30;;;20.40;41.90;;;;;;5090507;28;20241;-84
2022/04/23 12:17:29;;;;;;;4.40;4.10;;;20.50;42.50;;;;;;5090795;28;20799;-84
2022/04/23 12:20:07;;;;;;;7.78;4.07;;;21.10;41.80;;;;;;5083135;28;20194;-84
2022/04/23 12:22:33;;;;;;;6.38;4.88;;;21.80;40.00;;;;;;5085942;28;20188;-85
2022/04/23 12:25:18;;;;;;;4.50;4.20;;;22.00;39.40;;;;;;5078684;28;20204;-85
2022/04/23 12:40:43;;;;;;;4.20;3.90;;;22.10;39.20;;;;;;5088384;28;20287;-84
2022/04/23 12:42:10;;;;;;;4.47;4.18;;;22.20;37.80;;;;;;5095532;28;20252;-84
2022/04/23 12:44:46;;;;;;;4.85;4.13;;;22.00;37.80;;;;;;5086741;28;20207;-84
2022/04/23 12:47:35;;;;;;;4.35;4.05;;;22.00;37.90;;;;;;5079463;28;20718;-84
2022/04/23 12:50:07;;;;;;;4.82;4.53;;;21.90;38.30;;;;;;5083279;28;20211;-84
2022/04/23 12:52:45;;;;;;;4.82;4.43;;;21.80;38.70;;;;;;5077858;28;20749;-84
2022/04/23 12:55:33;;;;;;;4.55;4.25;;;22.20;37.90;;;;;;5090736;28;20593;-84
2022/04/23 12:58:05;;;;;;;53.35;14.02;;;22.50;37.90;;;;;;5091127;28;20190;-84
2022/04/23 13:00:32;;;;;;;7.82;5.07;;;22.80;37.60;;;;;;5090879;28;20244;-84
2022/04/23 13:03:03;;;;;;;21.73;8.10;;;22.60;37.30;;;;;;5085541;28;20239;-84
2022/04/23 13:05:29;;;;;;;6.35;4.40;;;22.00;38.70;;;;;;5092018;28;20299;-84
2022/04/23 13:10:39;;;;;;;6.10;5.60;;;21.60;39.90;;;;;;5089047;28;20744;-84
2022/04/23 13:13:09;;;;;;;24.90;7.93;;;21.10;40.40;;;;;;5087230;28;20179;-83
2022/04/23 13:15:36;;;;;;;7.43;5.70;;;20.90;41.30;;;;;;5095305;28;20301;-84
2022/04/23 13:18:05;;;;;;;140.63;26.90;;;20.60;41.80;;;;;;5083020;28;20197;-84
2022/04/23 13:20:31;;;;;;;6.95;5.55;;;20.20;43.00;;;;;;5085617;28;20214;-84
2022/04/23 13:22:59;;;;;;;23.33;8.23;;;20.20;42.70;;;;;;5087541;28;20585;-84